createdAt,value
2018-08-13T00:02:10.782Z,21.00
2018-08-13T00:04:43.894Z,21.00
2018-08-13T00:07:16.308Z,20.90
2018-08-13T00:09:51.411Z,20.90
2018-08-13T00:12:22.309Z,20.90
2018-08-13T00:14:54.403Z,20.80
2018-08-13T00:17:26.126Z,20.80
2018-08-13T00:19:57.203Z,20.70
2018-08-13T00:22:32.859Z,20.70
2018-08-13T00:25:06.065Z,20.70
2018-08-13T00:27:41.526Z,20.70
2018-08-13T00:30:13.342Z,20.60
2018-08-13T00:32:47.037Z,20.60
2018-08-13T00:35:19.818Z,20.50
2018-08-13T00:37:54.311Z,20.50
2018-08-13T00:40:28.150Z,20.50
2018-08-13T00:43:00.363Z,20.50
2018-08-13T00:45:31.450Z,20.50
2018-08-13T00:48:01.241Z,20.50
2018-08-13T00:50:34.592Z,20.50
2018-08-13T00:53:05.581Z,20.40
2018-08-13T00:55:36.213Z,20.40
2018-08-13T00:58:09.453Z,20.40
2018-08-13T01:00:45.740Z,20.30
2018-08-13T01:03:19.283Z,20.30
2018-08-13T01:05:51.625Z,20.20
2018-08-13T01:08:23.376Z,20.20
2018-08-13T01:10:58.230Z,20.10
2018-08-13T01:13:33.154Z,20.10
2018-08-13T01:16:03.456Z,20.10
2018-08-13T01:18:34.304Z,20.00
2018-08-13T01:21:03.991Z,20.10
2018-08-13T01:23:35.651Z,20.10
2018-08-13T01:26:05.514Z,20.00
2018-08-13T01:28:36.910Z,20.00
2018-08-13T01:31:28.047Z,20.00
2018-08-13T01:33:57.881Z,20.00
2018-08-13T01:36:29.719Z,19.90
2018-08-13T01:38:59.917Z,19.90
2018-08-13T01:41:33.157Z,19.90
2018-08-13T01:44:03.933Z,20.00
2018-08-13T01:46:35.395Z,20.00
2018-08-13T01:49:07.407Z,20.00
2018-08-13T01:51:37.709Z,20.00
2018-08-13T01:54:09.378Z,20.00
2018-08-13T01:56:40.984Z,20.00
2018-08-13T01:59:12.101Z,20.00
2018-08-13T02:01:42.529Z,20.00
2018-08-13T02:04:12.962Z,20.00
2018-08-13T02:06:42.876Z,20.00
2018-08-13T02:09:14.213Z,19.90
2018-08-13T02:11:44.341Z,19.80
2018-08-13T02:14:14.773Z,19.70
2018-08-13T02:16:44.871Z,19.70
2018-08-13T02:19:14.505Z,19.60
2018-08-13T02:21:44.548Z,19.50
2018-08-13T02:24:14.389Z,19.50
2018-08-13T02:26:44.560Z,19.50
2018-08-13T02:29:14.572Z,19.50
2018-08-13T02:31:44.422Z,19.50
2018-08-13T02:34:14.236Z,19.50
2018-08-13T02:36:44.253Z,19.50
2018-08-13T02:39:16.750Z,19.50
2018-08-13T02:41:47.774Z,19.50
2018-08-13T02:44:17.488Z,19.50
2018-08-13T02:46:47.954Z,19.50
2018-08-13T02:49:17.705Z,19.50
2018-08-13T02:51:47.917Z,19.50
2018-08-13T02:54:18.554Z,19.60
2018-08-13T03:00:04.041Z,19.50
2018-08-13T03:02:33.426Z,19.50
2018-08-13T03:05:04.742Z,19.60
2018-08-13T03:07:35.133Z,19.60
2018-08-13T03:10:05.515Z,19.60
2018-08-13T03:12:35.066Z,19.70
2018-08-13T03:15:08.655Z,19.70
2018-08-13T03:17:38.247Z,19.80
2018-08-13T03:20:08.481Z,19.80
2018-08-13T03:22:38.074Z,19.90
2018-08-13T03:25:11.556Z,20.00
2018-08-13T03:27:41.192Z,19.90
2018-08-13T03:30:11.901Z,19.90
2018-08-13T03:32:41.795Z,19.90
2018-08-13T03:35:11.735Z,19.80
2018-08-13T03:37:41.446Z,19.90
2018-08-13T03:40:13.433Z,19.80
2018-08-13T03:42:42.771Z,19.80
2018-08-13T03:45:13.159Z,19.80
2018-08-13T03:47:42.617Z,19.80
2018-08-13T03:50:12.802Z,19.80
2018-08-13T03:52:43.092Z,19.90
2018-08-13T03:55:12.837Z,20.00
2018-08-13T03:57:42.723Z,19.90
2018-08-13T04:00:14.806Z,19.80
2018-08-13T04:02:44.334Z,19.80
2018-08-13T04:05:14.810Z,19.80
2018-08-13T04:07:56.043Z,19.70
2018-08-13T04:10:25.318Z,19.60
2018-08-13T04:12:58.408Z,19.40
2018-08-13T04:15:28.239Z,19.30
2018-08-13T04:17:57.591Z,19.10
2018-08-13T04:20:26.854Z,18.70
2018-08-13T04:22:57.340Z,18.40
2018-08-13T04:25:27.129Z,18.10
2018-08-13T04:27:58.014Z,17.90
2018-08-13T04:30:32.521Z,17.80
2018-08-13T04:33:01.808Z,17.60
2018-08-13T04:35:34.363Z,17.50
2018-08-13T04:38:06.975Z,17.50
2018-08-13T04:40:45.922Z,17.40
2018-08-13T04:43:18.890Z,17.40
2018-08-13T04:45:48.964Z,17.50
2018-08-13T04:48:19.672Z,17.50
2018-08-13T04:50:49.929Z,17.50
2018-08-13T04:53:19.244Z,17.60
2018-08-13T04:55:48.646Z,17.60
2018-08-13T04:58:18.062Z,17.60
2018-08-13T05:01:52.982Z,17.60
2018-08-13T05:04:22.826Z,17.60
2018-08-13T05:06:54.347Z,17.60
2018-08-13T05:09:23.665Z,17.60
2018-08-13T05:11:53.174Z,17.60
2018-08-13T05:14:22.466Z,17.70
2018-08-13T05:16:52.356Z,17.70
2018-08-13T05:19:22.760Z,17.80
2018-08-13T05:21:52.154Z,17.80
2018-08-13T05:24:21.692Z,17.90
2018-08-13T05:26:51.705Z,18.00
2018-08-13T05:29:21.571Z,18.10
2018-08-13T05:31:51.446Z,18.20
2018-08-13T05:34:21.450Z,18.30
2018-08-13T05:36:51.577Z,18.30
2018-08-13T05:39:21.044Z,18.30
2018-08-13T05:41:50.537Z,18.10
2018-08-13T05:44:19.867Z,17.80
2018-08-13T05:46:49.478Z,17.40
2018-08-13T05:49:19.083Z,17.30
2018-08-13T05:51:48.980Z,17.10
2018-08-13T05:54:18.280Z,17.00
2018-08-13T05:56:48.041Z,17.00
2018-08-13T05:59:17.428Z,16.80
2018-08-13T06:01:46.790Z,16.80
2018-08-13T06:04:16.196Z,16.90
2018-08-13T06:06:45.708Z,16.90
2018-08-13T06:09:15.168Z,16.90
2018-08-13T06:11:44.688Z,16.90
2018-08-13T06:14:14.129Z,17.00
2018-08-13T06:16:43.559Z,17.00
2018-08-13T06:19:13.084Z,17.00
2018-08-13T06:21:42.343Z,17.00
2018-08-13T06:24:12.322Z,17.10
2018-08-13T06:26:41.807Z,17.10
2018-08-13T06:29:11.569Z,17.20
2018-08-13T06:31:42.738Z,17.30
2018-08-13T06:34:12.273Z,17.30
2018-08-13T06:36:41.730Z,17.50
2018-08-13T06:39:11.773Z,17.50
2018-08-13T06:41:41.269Z,17.70
2018-08-13T06:44:10.520Z,17.80
2018-08-13T06:46:40.082Z,17.90
2018-08-13T06:49:09.894Z,18.00
2018-08-13T06:51:40.542Z,18.10
2018-08-13T06:54:10.622Z,18.20
2018-08-13T06:56:40.167Z,18.30
2018-08-13T06:59:09.611Z,18.30
2018-08-13T07:01:39.910Z,18.40
2018-08-13T07:04:23.643Z,18.40
2018-08-13T07:06:53.936Z,18.40
2018-08-13T07:09:23.738Z,18.40
2018-08-13T07:11:54.449Z,18.40
2018-08-13T07:14:24.142Z,18.40
2018-08-13T07:16:54.539Z,18.40
2018-08-13T07:19:24.040Z,18.40
2018-08-13T07:21:53.959Z,18.40
2018-08-13T07:24:25.992Z,18.30
2018-08-13T07:26:55.564Z,18.30
2018-08-13T07:29:26.503Z,18.20
2018-08-13T07:32:04.834Z,18.10
2018-08-13T07:34:44.075Z,18.00
2018-08-13T07:37:13.677Z,18.10
2018-08-13T07:39:43.352Z,18.20
2018-08-13T07:42:12.862Z,18.30
2018-08-13T07:44:42.590Z,18.30
2018-08-13T07:47:12.212Z,18.20
2018-08-13T07:49:42.287Z,18.20
2018-08-13T07:52:11.827Z,18.20
2018-08-13T07:54:41.575Z,18.30
2018-08-13T07:57:10.937Z,18.30
2018-08-13T07:59:41.069Z,18.30
2018-08-13T08:02:10.998Z,18.30
2018-08-13T08:04:45.729Z,18.30
2018-08-13T08:07:15.167Z,18.30
2018-08-13T08:09:44.783Z,18.30
2018-08-13T08:12:15.636Z,18.40
2018-08-13T08:14:45.471Z,18.40
2018-08-13T08:17:15.059Z,18.40
2018-08-13T08:19:44.643Z,18.50
2018-08-13T08:22:14.178Z,18.60
2018-08-13T08:24:43.841Z,18.80
2018-08-13T08:27:13.931Z,19.00
2018-08-13T08:29:43.621Z,19.20
2018-08-13T08:32:13.763Z,19.40
2018-08-13T08:34:44.303Z,19.40
2018-08-13T08:37:13.647Z,19.50
2018-08-13T08:39:43.250Z,19.60
2018-08-13T08:42:13.030Z,19.60
2018-08-13T08:44:42.610Z,19.80
2018-08-13T08:47:12.899Z,19.80
2018-08-13T08:49:43.509Z,19.90
2018-08-13T08:52:13.143Z,19.80
2018-08-13T08:54:44.135Z,19.90
2018-08-13T08:57:13.828Z,20.00
2018-08-13T09:00:03.908Z,20.10
2018-08-13T09:02:33.778Z,20.30
2018-08-13T09:05:05.251Z,20.40
2018-08-13T09:07:36.848Z,20.70
2018-08-13T09:10:07.269Z,21.20
2018-08-13T09:12:37.755Z,21.60
2018-08-13T09:15:08.511Z,21.60
2018-08-13T09:17:49.035Z,21.50
2018-08-13T09:20:29.254Z,21.50
2018-08-13T09:23:09.251Z,21.50
2018-08-13T09:25:49.849Z,21.40
2018-08-13T09:28:30.976Z,21.20
2018-08-13T09:31:15.899Z,21.00
2018-08-13T09:33:59.162Z,20.90
2018-08-13T09:36:29.162Z,21.00
2018-08-13T09:38:59.520Z,21.00
2018-08-13T09:41:33.519Z,21.00
2018-08-13T09:44:26.872Z,20.50
2018-08-13T09:47:08.098Z,20.10
2018-08-13T09:49:38.791Z,19.80
2018-08-13T09:52:13.339Z,19.50
2018-08-13T09:54:43.023Z,19.40
2018-08-13T09:57:12.750Z,19.40
2018-08-13T09:59:42.320Z,19.60
2018-08-13T10:02:12.016Z,19.60
2018-08-13T10:04:42.915Z,19.70
2018-08-13T10:07:13.139Z,19.60
2018-08-13T10:09:43.197Z,19.60
2018-08-13T10:12:13.123Z,19.60
2018-08-13T10:14:43.338Z,19.60
2018-08-13T10:17:13.239Z,19.40
2018-08-13T10:19:43.784Z,19.30
2018-08-13T10:22:13.433Z,19.30
2018-08-13T10:24:44.545Z,19.10
2018-08-13T10:27:14.490Z,19.20
2018-08-13T10:29:44.445Z,19.30
2018-08-13T10:32:15.353Z,19.20
2018-08-13T10:34:45.154Z,19.30
2018-08-13T10:37:15.067Z,19.30
2018-08-13T10:39:46.800Z,19.30
2018-08-13T10:42:21.009Z,19.30
2018-08-13T10:44:53.332Z,19.60
2018-08-13T10:47:24.018Z,19.90
2018-08-13T10:49:55.019Z,20.40
2018-08-13T10:52:27.894Z,21.50
2018-08-13T10:54:57.678Z,22.30
2018-08-13T10:57:27.466Z,22.40
2018-08-13T11:00:00.041Z,21.80
2018-08-13T11:02:30.565Z,21.10
2018-08-13T11:05:00.066Z,20.80
2018-08-13T11:07:30.198Z,20.70
2018-08-13T11:09:59.881Z,20.90
2018-08-13T11:12:31.134Z,21.30
2018-08-13T11:15:02.233Z,21.40
2018-08-13T11:17:32.380Z,21.60
2018-08-13T11:20:05.950Z,21.40
2018-08-13T11:22:35.583Z,21.50
2018-08-13T11:25:06.941Z,21.50
2018-08-13T11:27:41.958Z,22.30
2018-08-13T11:30:20.086Z,22.80
2018-08-13T11:32:54.322Z,22.90
2018-08-13T11:35:25.147Z,23.10
2018-08-13T11:37:54.867Z,22.90
2018-08-13T11:40:25.459Z,22.70
2018-08-13T11:43:09.726Z,22.90
2018-08-13T11:49:26.867Z,22.50
2018-08-13T11:52:23.683Z,22.30
2018-08-13T11:55:03.904Z,22.50
2018-08-13T11:57:33.955Z,22.40
2018-08-13T12:00:05.123Z,22.20
2018-08-13T12:02:34.878Z,22.10
2018-08-13T12:05:05.851Z,22.20
2018-08-13T12:07:35.401Z,22.40
2018-08-13T12:10:07.752Z,22.90
2018-08-13T12:12:39.709Z,23.90
2018-08-13T12:15:11.963Z,24.00
2018-08-13T12:17:50.706Z,23.90
2018-08-13T12:20:22.281Z,23.50
2018-08-13T12:22:54.535Z,23.10
2018-08-13T12:25:26.595Z,22.10
2018-08-13T12:27:59.484Z,21.20
2018-08-13T12:30:33.304Z,20.70
2018-08-13T12:33:05.774Z,20.20
2018-08-13T12:35:38.965Z,20.10
2018-08-13T12:38:14.145Z,19.90
2018-08-13T12:40:43.965Z,19.70
2018-08-13T12:43:13.600Z,19.60
2018-08-13T12:45:44.438Z,19.60
2018-08-13T12:48:16.683Z,19.70
2018-08-13T12:50:46.269Z,19.90
2018-08-13T12:53:16.001Z,20.10
2018-08-13T12:55:45.451Z,20.20
2018-08-13T12:58:15.730Z,20.30
2018-08-13T13:00:50.334Z,20.40
2018-08-13T13:03:21.485Z,20.80
2018-08-13T13:05:54.512Z,21.90
2018-08-13T13:08:24.248Z,22.30
2018-08-13T13:11:00.203Z,22.80
2018-08-13T13:13:45.547Z,22.90
2018-08-13T13:16:21.581Z,22.90
2018-08-13T13:18:51.971Z,22.90
2018-08-13T13:21:21.879Z,23.00
2018-08-13T13:23:57.914Z,22.80
2018-08-13T13:26:44.220Z,22.50
2018-08-13T13:29:16.996Z,22.30
2018-08-13T13:31:47.749Z,22.30
2018-08-13T13:34:30.378Z,22.40
2018-08-13T13:37:01.117Z,22.50
2018-08-13T13:40:01.282Z,22.40
2018-08-13T13:42:33.859Z,22.50
2018-08-13T13:45:06.474Z,22.60
2018-08-13T13:47:36.279Z,22.60
2018-08-13T13:50:09.870Z,22.80
2018-08-13T13:52:39.743Z,23.30
2018-08-13T13:55:09.361Z,23.40
2018-08-13T13:57:39.365Z,23.70
2018-08-13T14:00:16.683Z,23.70
2018-08-13T14:02:48.207Z,23.60
2018-08-13T14:05:17.865Z,23.90
2018-08-13T14:07:47.574Z,23.80
2018-08-13T14:10:18.820Z,23.70
2018-08-13T14:12:51.168Z,23.70
2018-08-13T14:15:31.760Z,23.70
2018-08-13T14:18:01.719Z,23.60
2018-08-13T14:20:32.812Z,23.40
2018-08-13T14:23:09.308Z,23.50
2018-08-13T14:25:39.264Z,23.70
2018-08-13T14:28:09.771Z,23.80
2018-08-13T14:30:39.389Z,23.90
2018-08-13T14:33:08.964Z,23.70
2018-08-13T14:35:39.112Z,23.70
2018-08-13T14:38:08.753Z,23.50
2018-08-13T14:40:41.888Z,23.30
2018-08-13T14:43:11.463Z,23.20
2018-08-13T14:45:41.500Z,23.20
2018-08-13T14:48:15.933Z,23.20
2018-08-13T14:50:56.392Z,23.10
2018-08-13T14:53:27.011Z,23.20
2018-08-13T14:55:58.832Z,23.00
2018-08-13T14:58:30.194Z,23.00
2018-08-13T15:01:04.093Z,23.00
2018-08-13T15:03:40.537Z,23.10
2018-08-13T15:06:16.200Z,23.50
2018-08-13T15:08:46.120Z,23.50
2018-08-13T15:11:19.472Z,23.70
2018-08-13T15:13:49.033Z,23.80
2018-08-13T15:16:24.644Z,24.00
2018-08-13T15:18:55.162Z,24.20
2018-08-13T15:21:31.484Z,24.00
2018-08-13T15:24:04.268Z,23.70
2018-08-13T15:26:37.494Z,23.60
2018-08-13T15:29:11.895Z,23.60
2018-08-13T15:31:42.094Z,23.50
2018-08-13T15:34:12.407Z,23.30
2018-08-13T15:36:42.444Z,23.30
2018-08-13T15:39:12.582Z,23.50
2018-08-13T15:41:42.646Z,23.50
2018-08-13T15:44:12.262Z,23.40
2018-08-13T15:46:43.302Z,23.30
2018-08-13T15:49:13.219Z,23.30
2018-08-13T15:51:43.067Z,23.40
2018-08-13T15:54:12.780Z,23.60
2018-08-13T15:56:42.832Z,23.60
2018-08-13T15:59:12.445Z,23.40
2018-08-13T16:01:43.628Z,23.40
2018-08-13T16:04:15.473Z,23.40
2018-08-13T16:06:50.544Z,23.40
2018-08-13T16:09:24.072Z,23.30
2018-08-13T16:11:53.892Z,23.00
2018-08-13T16:14:23.702Z,22.90
2018-08-13T16:16:55.825Z,22.80
2018-08-13T16:19:25.361Z,22.70
2018-08-13T16:22:01.433Z,22.60
2018-08-13T16:24:34.317Z,22.60
2018-08-13T16:27:05.403Z,22.80
2018-08-13T16:29:35.085Z,22.90
2018-08-13T16:32:04.930Z,22.90
2018-08-13T16:34:38.890Z,22.80
2018-08-13T16:37:09.318Z,22.90
2018-08-13T16:39:50.855Z,22.90
2018-08-13T16:42:21.605Z,22.70
2018-08-13T16:44:51.299Z,22.50
2018-08-13T16:47:21.010Z,22.70
2018-08-13T16:49:51.228Z,22.70
2018-08-13T16:52:22.113Z,22.90
2018-08-13T16:54:51.726Z,22.90
2018-08-13T16:57:21.370Z,23.00
2018-08-13T16:59:51.006Z,22.90
2018-08-13T17:02:20.699Z,22.90
2018-08-13T17:04:53.679Z,22.90
2018-08-13T17:07:40.937Z,23.00
2018-08-13T17:10:19.613Z,22.90
2018-08-13T17:12:52.848Z,22.70
2018-08-13T17:15:23.577Z,22.60
2018-08-13T17:17:56.423Z,22.60
2018-08-13T17:20:28.774Z,22.70
2018-08-13T17:22:59.331Z,22.90
2018-08-13T17:25:28.910Z,23.10
2018-08-13T17:28:00.088Z,23.20
2018-08-13T17:30:36.360Z,23.20
2018-08-13T17:33:15.427Z,23.20
2018-08-13T17:35:48.274Z,23.30
2018-08-13T17:38:18.068Z,23.20
2018-08-13T17:40:47.920Z,23.30
2018-08-13T17:43:17.972Z,23.20
2018-08-13T17:45:51.820Z,23.20
2018-08-13T17:48:23.800Z,23.20
2018-08-13T17:50:56.172Z,23.20
2018-08-13T17:53:29.600Z,23.20
2018-08-13T17:56:02.952Z,23.20
2018-08-13T17:58:46.839Z,23.30
2018-08-13T18:01:54.634Z,23.20
2018-08-13T18:04:28.027Z,23.20
2018-08-13T18:06:59.719Z,23.20
2018-08-13T18:09:31.706Z,23.20
2018-08-13T18:12:18.175Z,23.00
2018-08-13T18:14:51.471Z,22.70
2018-08-13T18:17:22.990Z,22.50
2018-08-13T18:20:14.332Z,22.60
2018-08-13T18:22:52.321Z,22.70
2018-08-13T18:25:23.288Z,22.70
2018-08-13T18:28:12.883Z,22.70
2018-08-13T18:30:53.879Z,22.50
2018-08-13T18:33:41.213Z,22.40
2018-08-13T18:36:24.945Z,22.20
2018-08-13T18:39:00.844Z,22.30
2018-08-13T18:41:30.621Z,22.30
2018-08-13T18:44:08.988Z,22.30
2018-08-13T18:46:46.919Z,22.10
2018-08-13T18:49:30.041Z,22.10
2018-08-13T18:54:34.033Z,22.00
2018-08-13T18:57:05.070Z,21.90
2018-08-13T18:59:34.909Z,21.90
2018-08-13T19:02:10.089Z,21.90
2018-08-13T19:05:14.034Z,21.90
2018-08-13T19:07:45.545Z,22.00
2018-08-13T19:10:16.956Z,22.00
2018-08-13T19:13:05.535Z,22.00
2018-08-13T19:15:43.268Z,22.10
2018-08-13T19:18:37.212Z,22.10
2018-08-13T19:21:08.573Z,22.00
2018-08-13T19:23:46.849Z,22.00
2018-08-13T19:26:16.579Z,21.90
2018-08-13T19:29:04.571Z,21.70
2018-08-13T19:31:43.653Z,21.60
2018-08-13T19:34:18.038Z,21.60
2018-08-13T19:36:48.013Z,21.60
2018-08-13T19:39:27.612Z,21.60
2018-08-13T19:42:07.856Z,21.50
2018-08-13T19:44:38.201Z,21.50
2018-08-13T19:47:08.588Z,21.50
2018-08-13T19:49:38.202Z,21.50
2018-08-13T19:52:09.791Z,21.50
2018-08-13T19:54:40.179Z,21.50
2018-08-13T19:57:09.667Z,21.40
2018-08-13T19:59:39.691Z,21.20
2018-08-13T20:02:12.536Z,21.10
2018-08-13T20:05:05.677Z,21.00
2018-08-13T20:07:38.826Z,21.00
2018-08-13T20:10:18.402Z,20.90
2018-08-13T20:12:48.861Z,20.90
2018-08-13T20:15:19.312Z,20.90
2018-08-13T20:17:49.086Z,21.00
2018-08-13T20:20:20.332Z,21.00
2018-08-13T20:22:52.126Z,21.00
2018-08-13T20:25:33.359Z,20.90
2018-08-13T20:28:09.888Z,20.90
2018-08-13T20:30:55.997Z,20.90
2018-08-13T20:33:38.161Z,21.00
2018-08-13T20:36:09.918Z,20.90
2018-08-13T20:38:43.752Z,20.80
2018-08-13T20:41:27.265Z,20.80
2018-08-13T20:44:01.044Z,20.80
2018-08-13T20:46:31.157Z,20.70
2018-08-13T20:49:01.038Z,20.50
2018-08-13T20:51:34.090Z,20.50
2018-08-13T20:54:06.575Z,20.60
2018-08-13T20:56:36.760Z,20.80
2018-08-13T20:59:06.707Z,20.60
2018-08-13T21:01:38.955Z,20.60
2018-08-13T21:04:12.129Z,20.60
2018-08-13T21:06:41.785Z,20.50
2018-08-13T21:09:17.039Z,20.30
2018-08-13T21:11:58.631Z,20.20
2018-08-13T21:17:23.163Z,20.10
2018-08-13T21:19:54.478Z,20.10
2018-08-13T21:22:28.781Z,20.00
2018-08-13T21:25:00.832Z,19.90
2018-08-13T21:27:38.871Z,19.80
2018-08-13T21:30:23.472Z,19.70
2018-08-13T21:32:58.368Z,19.60
2018-08-13T21:35:41.475Z,19.60
2018-08-13T21:38:25.474Z,19.60
2018-08-13T21:40:58.025Z,19.50
2018-08-13T21:43:29.021Z,19.50
2018-08-13T21:46:18.391Z,19.40
2018-08-13T21:49:05.269Z,19.40
2018-08-13T21:51:35.593Z,19.40
2018-08-13T21:54:05.799Z,19.30
2018-08-13T21:56:37.170Z,19.30
2018-08-13T21:59:07.140Z,19.30
2018-08-13T22:01:48.817Z,19.30
2018-08-13T22:04:19.210Z,19.30
2018-08-13T22:06:50.185Z,19.30
2018-08-13T22:09:24.244Z,19.30
2018-08-13T22:12:05.218Z,19.20
2018-08-13T22:14:34.767Z,19.10
2018-08-13T22:17:04.454Z,19.10
2018-08-13T22:19:34.150Z,19.10
2018-08-13T22:22:12.026Z,19.10
2018-08-13T22:25:01.847Z,19.10
2018-08-13T22:27:36.965Z,19.00
2018-08-13T22:30:08.066Z,18.90
2018-08-13T22:32:37.502Z,18.90
2018-08-13T22:35:08.048Z,18.90
2018-08-13T22:37:39.509Z,18.80
2018-08-13T22:40:16.800Z,18.90
2018-08-13T22:42:48.583Z,18.90
2018-08-13T22:45:21.429Z,18.90
2018-08-13T22:47:50.902Z,18.80
2018-08-13T22:50:20.474Z,18.80
2018-08-13T22:52:51.526Z,18.70
2018-08-13T22:55:20.881Z,18.70
2018-08-13T22:57:50.674Z,18.70
2018-08-13T23:00:21.390Z,18.70
2018-08-13T23:02:51.613Z,18.70
2018-08-13T23:05:23.600Z,18.70
2018-08-13T23:07:53.004Z,18.70
2018-08-13T23:10:23.756Z,18.70
2018-08-13T23:12:54.506Z,18.70
2018-08-13T23:15:25.225Z,18.70
2018-08-13T23:17:55.738Z,18.70
2018-08-13T23:20:29.735Z,18.70
2018-08-13T23:23:03.917Z,18.70
2018-08-13T23:25:35.574Z,18.60
2018-08-13T23:28:06.970Z,18.60
2018-08-13T23:30:41.189Z,18.60
2018-08-13T23:33:12.423Z,18.60
2018-08-13T23:35:45.769Z,18.60
2018-08-13T23:38:16.277Z,18.60
2018-08-13T23:40:45.789Z,18.70
2018-08-13T23:43:16.102Z,18.80
2018-08-13T23:45:46.280Z,18.80
2018-08-13T23:48:18.245Z,18.80
2018-08-13T23:50:49.020Z,18.80
2018-08-13T23:53:20.240Z,18.80
2018-08-13T23:55:51.717Z,18.90
2018-08-13T23:58:22.726Z,18.80
